sensor_id;sensor_type;location;lat;lon;timestamp;temperature;humidity
23122;DHT22;11730;51.248;22.534;2022-09-01T00:02:29;13.90;99.90
23122;DHT22;11730;51.248;22.534;2022-09-01T00:04:56;13.80;99.90
23122;DHT22;11730;51.248;22.534;2022-09-01T00:07:26;13.90;99.90
23122;DHT22;11730;51.248;22.534;2022-09-01T00:09:57;13.80;99.90
23122;DHT22;11730;51.248;22.534;2022-09-01T00:12:25;12.70;99.90
23122;DHT22;11730;51.248;22.534;2022-09-01T00:14:52;13.60;99.90
23122;DHT22;11730;51.248;22.534;2022-09-01T00:17:20;13.80;99.90
23122;DHT22;11730;51.248;22.534;2022-09-01T00:19:47;13.70;99.90
23122;DHT22;11730;51.248;22.534;2022-09-01T00:22:15;13.90;99.90
23122;DHT22;11730;51.248;22.534;2022-09-01T00:24:42;13.90;99.90
23122;DHT22;11730;51.248;22.534;2022-09-01T00:27:09;13.80;99.90
23122;DHT22;11730;51.248;22.534;2022-09-01T00:29:36;13.60;99.90
23122;DHT22;11730;51.248;22.534;2022-09-01T00:34:30;13.50;99.90
23122;DHT22;11730;51.248;22.534;2022-09-01T00:39:24;13.50;99.90
23122;DHT22;11730;51.248;22.534;2022-09-01T00:44:20;13.50;99.90
23122;DHT22;11730;51.248;22.534;2022-09-01T00:46:57;13.50;99.90
23122;DHT22;11730;51.248;22.534;2022-09-01T00:49:29;13.50;99.90
23122;DHT22;11730;51.248;22.534;2022-09-01T00:52:20;13.40;99.90
23122;DHT22;11730;51.248;22.534;2022-09-01T00:54:53;13.50;99.90
23122;DHT22;11730;51.248;22.534;2022-09-01T00:57:22;13.30;99.90
23122;DHT22;11730;51.248;22.534;2022-09-01T00:59:56;13.50;99.90
23122;DHT22;11730;51.248;22.534;2022-09-01T01:02:24;13.40;99.90
23122;DHT22;11730;51.248;22.534;2022-09-01T01:04:52;13.50;99.90
23122;DHT22;11730;51.248;22.534;2022-09-01T01:07:22;13.40;99.90
23122;DHT22;11730;51.248;22.534;2022-09-01T01:09:50;13.40;99.90
23122;DHT22;11730;51.248;22.534;2022-09-01T01:12:18;13.40;99.90
23122;DHT22;11730;51.248;22.534;2022-09-01T01:14:46;13.30;99.90
23122;DHT22;11730;51.248;22.534;2022-09-01T01:17:17;13.50;99.90
23122;DHT22;11730;51.248;22.534;2022-09-01T01:19:50;13.40;99.90
23122;DHT22;11730;51.248;22.534;2022-09-01T01:28:12;13.20;99.90
23122;DHT22;11730;51.248;22.534;2022-09-01T01:30:43;13.40;99.90
23122;DHT22;11730;51.248;22.534;2022-09-01T01:33:10;13.20;99.90
23122;DHT22;11730;51.248;22.534;2022-09-01T01:35:37;13.30;99.90
23122;DHT22;11730;51.248;22.534;2022-09-01T01:40:34;13.30;99.90
23122;DHT22;11730;51.248;22.534;2022-09-01T01:43:02;13.20;99.90
23122;DHT22;11730;51.248;22.534;2022-09-01T01:45:30;13.00;99.90
23122;DHT22;11730;51.248;22.534;2022-09-01T01:47:57;13.00;99.90
23122;DHT22;11730;51.248;22.534;2022-09-01T01:50:27;13.00;99.90
23122;DHT22;11730;51.248;22.534;2022-09-01T01:55:26;13.10;99.90
23122;DHT22;11730;51.248;22.534;2022-09-01T01:57:57;13.00;99.90
23122;DHT22;11730;51.248;22.534;2022-09-01T02:00:29;12.90;99.90
23122;DHT22;11730;51.248;22.534;2022-09-01T02:02:58;12.80;99.90
23122;DHT22;11730;51.248;22.534;2022-09-01T02:05:28;12.70;99.90
23122;DHT22;11730;51.248;22.534;2022-09-01T02:07:58;12.80;99.90
23122;DHT22;11730;51.248;22.534;2022-09-01T02:10:27;12.70;99.90
23122;DHT22;11730;51.248;22.534;2022-09-01T02:12:59;12.60;99.90
23122;DHT22;11730;51.248;22.534;2022-09-01T02:15:31;12.60;99.90
23122;DHT22;11730;51.248;22.534;2022-09-01T02:20:33;12.60;99.90
23122;DHT22;11730;51.248;22.534;2022-09-01T02:25:37;12.50;99.90
23122;DHT22;11730;51.248;22.534;2022-09-01T02:28:24;12.40;99.90
23122;DHT22;11730;51.248;22.534;2022-09-01T02:30:53;12.40;99.90
23122;DHT22;11730;51.248;22.534;2022-09-01T02:33:26;12.50;99.90
23122;DHT22;11730;51.248;22.534;2022-09-01T02:35:56;12.40;99.90
23122;DHT22;11730;51.248;22.534;2022-09-01T02:38:24;12.40;99.90
23122;DHT22;11730;51.248;22.534;2022-09-01T02:40:58;12.40;99.90
23122;DHT22;11730;51.248;22.534;2022-09-01T02:43:28;12.10;99.90
23122;DHT22;11730;51.248;22.534;2022-09-01T02:45:59;12.20;99.90
23122;DHT22;11730;51.248;22.534;2022-09-01T02:48:39;12.30;99.90
23122;DHT22;11730;51.248;22.534;2022-09-01T02:51:10;12.30;99.90
23122;DHT22;11730;51.248;22.534;2022-09-01T02:53:38;12.20;99.90
23122;DHT22;11730;51.248;22.534;2022-09-01T02:56:07;12.20;99.90
23122;DHT22;11730;51.248;22.534;2022-09-01T02:58:42;12.10;99.90
23122;DHT22;11730;51.248;22.534;2022-09-01T03:03:48;12.20;99.90
23122;DHT22;11730;51.248;22.534;2022-09-01T03:06:15;12.20;99.90
23122;DHT22;11730;51.248;22.534;2022-09-01T03:08:45;11.90;99.90
23122;DHT22;11730;51.248;22.534;2022-09-01T03:11:12;12.00;99.90
23122;DHT22;11730;51.248;22.534;2022-09-01T03:13:41;11.90;99.90
23122;DHT22;11730;51.248;22.534;2022-09-01T03:16:09;12.00;99.90
23122;DHT22;11730;51.248;22.534;2022-09-01T03:18:37;11.90;99.90
23122;DHT22;11730;51.248;22.534;2022-09-01T03:21:06;11.90;99.90
23122;DHT22;11730;51.248;22.534;2022-09-01T03:23:34;11.90;99.90
23122;DHT22;11730;51.248;22.534;2022-09-01T03:28:30;11.90;99.90
23122;DHT22;11730;51.248;22.534;2022-09-01T03:30:58;11.80;99.90
23122;DHT22;11730;51.248;22.534;2022-09-01T03:33:26;11.70;99.90
23122;DHT22;11730;51.248;22.534;2022-09-01T03:35:54;11.60;99.90
23122;DHT22;11730;51.248;22.534;2022-09-01T03:38:23;11.70;99.90
23122;DHT22;11730;51.248;22.534;2022-09-01T03:40:57;11.70;99.90
23122;DHT22;11730;51.248;22.534;2022-09-01T03:43:28;11.60;99.90
23122;DHT22;11730;51.248;22.534;2022-09-01T03:46:01;11.60;99.90
23122;DHT22;11730;51.248;22.534;2022-09-01T03:50:59;11.80;99.90
23122;DHT22;11730;51.248;22.534;2022-09-01T03:53:31;11.70;99.90
23122;DHT22;11730;51.248;22.534;2022-09-01T03:55:58;11.80;99.90
23122;DHT22;11730;51.248;22.534;2022-09-01T03:58:25;11.80;99.90
23122;DHT22;11730;51.248;22.534;2022-09-01T04:00:56;11.90;99.90
23122;DHT22;11730;51.248;22.534;2022-09-01T04:03:26;11.90;99.90
23122;DHT22;11730;51.248;22.534;2022-09-01T04:05:58;12.00;99.90
23122;DHT22;11730;51.248;22.534;2022-09-01T04:08:26;12.00;99.90
23122;DHT22;11730;51.248;22.534;2022-09-01T04:11:01;12.00;99.90
23122;DHT22;11730;51.248;22.534;2022-09-01T04:13:40;12.00;99.90
23122;DHT22;11730;51.248;22.534;2022-09-01T04:16:17;12.00;99.90
23122;DHT22;11730;51.248;22.534;2022-09-01T04:19:04;11.90;99.90
23122;DHT22;11730;51.248;22.534;2022-09-01T04:21:47;11.90;99.90
23122;DHT22;11730;51.248;22.534;2022-09-01T04:24:18;11.80;99.90
23122;DHT22;11730;51.248;22.534;2022-09-01T04:26:46;12.00;99.90
23122;DHT22;11730;51.248;22.534;2022-09-01T04:29:16;12.10;99.90
23122;DHT22;11730;51.248;22.534;2022-09-01T04:31:45;12.00;99.90
23122;DHT22;11730;51.248;22.534;2022-09-01T04:34:18;12.00;99.90
23122;DHT22;11730;51.248;22.534;2022-09-01T04:36:46;12.00;99.90
23122;DHT22;11730;51.248;22.534;2022-09-01T04:39:17;12.00;99.90
23122;DHT22;11730;51.248;22.534;2022-09-01T04:41:44;11.90;99.90
23122;DHT22;11730;51.248;22.534;2022-09-01T04:44:12;12.00;99.90
23122;DHT22;11730;51.248;22.534;2022-09-01T04:46:42;12.00;99.90
23122;DHT22;11730;51.248;22.534;2022-09-01T04:49:12;12.20;99.90
23122;DHT22;11730;51.248;22.534;2022-09-01T04:51:47;12.20;99.90
23122;DHT22;11730;51.248;22.534;2022-09-01T04:54:20;12.10;99.90
23122;DHT22;11730;51.248;22.534;2022-09-01T04:56:50;12.10;99.90
23122;DHT22;11730;51.248;22.534;2022-09-01T04:59:20;12.10;99.90
23122;DHT22;11730;51.248;22.534;2022-09-01T05:01:48;12.10;99.90
23122;DHT22;11730;51.248;22.534;2022-09-01T05:04:26;12.30;99.90
23122;DHT22;11730;51.248;22.534;2022-09-01T05:06:56;12.40;99.90
23122;DHT22;11730;51.248;22.534;2022-09-01T05:09:31;12.20;99.90
23122;DHT22;11730;51.248;22.534;2022-09-01T05:12:02;12.40;99.90
23122;DHT22;11730;51.248;22.534;2022-09-01T05:14:40;12.40;99.90
23122;DHT22;11730;51.248;22.534;2022-09-01T05:17:09;12.40;99.90
23122;DHT22;11730;51.248;22.534;2022-09-01T05:19:42;12.30;99.90
23122;DHT22;11730;51.248;22.534;2022-09-01T05:22:09;12.40;99.90
23122;DHT22;11730;51.248;22.534;2022-09-01T05:24:36;12.30;99.90
23122;DHT22;11730;51.248;22.534;2022-09-01T05:27:07;12.40;99.90
23122;DHT22;11730;51.248;22.534;2022-09-01T05:29:36;12.20;99.90
23122;DHT22;11730;51.248;22.534;2022-09-01T05:32:04;12.40;99.90
23122;DHT22;11730;51.248;22.534;2022-09-01T05:34:36;12.40;99.90
23122;DHT22;11730;51.248;22.534;2022-09-01T05:37:06;12.50;99.90
23122;DHT22;11730;51.248;22.534;2022-09-01T05:39:35;12.40;99.90
23122;DHT22;11730;51.248;22.534;2022-09-01T05:42:07;12.60;99.90
23122;DHT22;11730;51.248;22.534;2022-09-01T05:44:35;12.70;99.90
23122;DHT22;11730;51.248;22.534;2022-09-01T05:47:02;12.70;99.90
23122;DHT22;11730;51.248;22.534;2022-09-01T05:51:59;13.20;99.90
23122;DHT22;11730;51.248;22.534;2022-09-01T05:54:26;13.20;99.90
23122;DHT22;11730;51.248;22.534;2022-09-01T05:56:55;13.00;99.90
23122;DHT22;11730;51.248;22.534;2022-09-01T05:59:46;13.10;99.90
23122;DHT22;11730;51.248;22.534;2022-09-01T06:02:21;13.00;99.90
23122;DHT22;11730;51.248;22.534;2022-09-01T06:04:49;13.00;99.90
23122;DHT22;11730;51.248;22.534;2022-09-01T06:07:16;13.30;99.90
23122;DHT22;11730;51.248;22.534;2022-09-01T06:09:46;13.20;99.90
23122;DHT22;11730;51.248;22.534;2022-09-01T06:12:15;13.20;99.90
23122;DHT22;11730;51.248;22.534;2022-09-01T06:14:46;13.40;99.90
23122;DHT22;11730;51.248;22.534;2022-09-01T06:19:47;13.50;99.90
23122;DHT22;11730;51.248;22.534;2022-09-01T06:27:13;13.80;99.90
23122;DHT22;11730;51.248;22.534;2022-09-01T06:32:11;14.00;99.90
23122;DHT22;11730;51.248;22.534;2022-09-01T06:34:40;14.30;99.90
23122;DHT22;11730;51.248;22.534;2022-09-01T06:37:09;14.70;99.90
23122;DHT22;11730;51.248;22.534;2022-09-01T06:39:36;15.00;99.90
23122;DHT22;11730;51.248;22.534;2022-09-01T06:42:03;15.10;99.90
23122;DHT22;11730;51.248;22.534;2022-09-01T06:44:32;15.30;99.90
23122;DHT22;11730;51.248;22.534;2022-09-01T06:47:05;15.70;99.90
23122;DHT22;11730;51.248;22.534;2022-09-01T06:49:35;15.90;99.90
23122;DHT22;11730;51.248;22.534;2022-09-01T06:52:03;16.30;99.90
23122;DHT22;11730;51.248;22.534;2022-09-01T06:57:03;16.10;99.90
23122;DHT22;11730;51.248;22.534;2022-09-01T06:59:50;16.60;99.90
23122;DHT22;11730;51.248;22.534;2022-09-01T07:02:21;16.60;99.90
23122;DHT22;11730;51.248;22.534;2022-09-01T07:04:53;17.30;99.90
23122;DHT22;11730;51.248;22.534;2022-09-01T07:10:08;18.10;99.90
23122;DHT22;11730;51.248;22.534;2022-09-01T07:12:52;18.20;98.70
23122;DHT22;11730;51.248;22.534;2022-09-01T07:15:40;18.10;98.30
23122;DHT22;11730;51.248;22.534;2022-09-01T07:18:28;18.30;97.30
23122;DHT22;11730;51.248;22.534;2022-09-01T07:20:56;18.30;97.00
23122;DHT22;11730;51.248;22.534;2022-09-01T07:23:44;19.00;95.60
23122;DHT22;11730;51.248;22.534;2022-09-01T07:26:32;19.00;94.50
23122;DHT22;11730;51.248;22.534;2022-09-01T07:29:02;18.70;95.00
23122;DHT22;11730;51.248;22.534;2022-09-01T07:31:37;18.90;94.70
23122;DHT22;11730;51.248;22.534;2022-09-01T07:34:26;19.00;95.50
23122;DHT22;11730;51.248;22.534;2022-09-01T07:40:00;19.70;92.40
23122;DHT22;11730;51.248;22.534;2022-09-01T07:42:53;20.60;91.30
23122;DHT22;11730;51.248;22.534;2022-09-01T07:47:57;20.40;91.10
23122;DHT22;11730;51.248;22.534;2022-09-01T07:50:29;20.30;90.50
23122;DHT22;11730;51.248;22.534;2022-09-01T07:53:07;20.60;90.30
23122;DHT22;11730;51.248;22.534;2022-09-01T07:55:38;20.10;89.50
23122;DHT22;11730;51.248;22.534;2022-09-01T07:58:06;20.30;87.80
23122;DHT22;11730;51.248;22.534;2022-09-01T08:00:33;20.80;86.40
23122;DHT22;11730;51.248;22.534;2022-09-01T08:03:00;20.90;86.80
23122;DHT22;11730;51.248;22.534;2022-09-01T08:05:27;20.90;85.90
23122;DHT22;11730;51.248;22.534;2022-09-01T08:07:54;20.90;86.30
23122;DHT22;11730;51.248;22.534;2022-09-01T08:10:22;21.00;84.90
23122;DHT22;11730;51.248;22.534;2022-09-01T08:15:24;21.30;81.30
23122;DHT22;11730;51.248;22.534;2022-09-01T08:18:12;21.20;82.00
23122;DHT22;11730;51.248;22.534;2022-09-01T08:20:41;21.20;80.80
23122;DHT22;11730;51.248;22.534;2022-09-01T08:23:13;22.00;80.30
23122;DHT22;11730;51.248;22.534;2022-09-01T08:25:41;22.10;77.00
23122;DHT22;11730;51.248;22.534;2022-09-01T08:28:10;22.00;77.00
23122;DHT22;11730;51.248;22.534;2022-09-01T08:30:40;22.50;77.70
23122;DHT22;11730;51.248;22.534;2022-09-01T08:33:18;22.30;76.60
23122;DHT22;11730;51.248;22.534;2022-09-01T08:35:47;22.30;71.60
23122;DHT22;11730;51.248;22.534;2022-09-01T08:38:14;22.90;71.80
23122;DHT22;11730;51.248;22.534;2022-09-01T08:40:48;23.20;71.70
23122;DHT22;11730;51.248;22.534;2022-09-01T08:44:15;23.40;69.30
23122;DHT22;11730;51.248;22.534;2022-09-01T08:46:36;23.30;68.70
23122;DHT22;11730;51.248;22.534;2022-09-01T08:49:22;23.30;67.90
23122;DHT22;11730;51.248;22.534;2022-09-01T08:52:02;23.10;63.60
23122;DHT22;11730;51.248;22.534;2022-09-01T08:54:41;23.30;65.70
23122;DHT22;11730;51.248;22.534;2022-09-01T08:57:23;23.80;65.70
23122;DHT22;11730;51.248;22.534;2022-09-01T08:59:53;23.70;62.80
23122;DHT22;11730;51.248;22.534;2022-09-01T09:05:47;23.60;62.20
23122;DHT22;11730;51.248;22.534;2022-09-01T09:08:43;23.80;63.00
23122;DHT22;11730;51.248;22.534;2022-09-01T09:16:49;23.90;59.40
23122;DHT22;11730;51.248;22.534;2022-09-01T09:19:27;24.30;60.90
23122;DHT22;11730;51.248;22.534;2022-09-01T09:21:56;24.30;60.60
23122;DHT22;11730;51.248;22.534;2022-09-01T09:27:22;24.70;56.60
23122;DHT22;11730;51.248;22.534;2022-09-01T09:30:14;25.30;56.10
23122;DHT22;11730;51.248;22.534;2022-09-01T09:32:55;25.40;55.80
23122;DHT22;11730;51.248;22.534;2022-09-01T09:35:46;25.40;55.60
23122;DHT22;11730;51.248;22.534;2022-09-01T09:38:14;25.80;56.10
23122;DHT22;11730;51.248;22.534;2022-09-01T09:41:03;25.70;56.00
23122;DHT22;11730;51.248;22.534;2022-09-01T09:43:48;25.40;55.70
23122;DHT22;11730;51.248;22.534;2022-09-01T09:49:25;25.80;53.00
23122;DHT22;11730;51.248;22.534;2022-09-01T09:54:39;26.20;53.30
23122;DHT22;11730;51.248;22.534;2022-09-01T09:57:13;26.80;50.60
23122;DHT22;11730;51.248;22.534;2022-09-01T10:02:38;28.00;48.90
23122;DHT22;11730;51.248;22.534;2022-09-01T10:05:25;27.20;49.90
23122;DHT22;11730;51.248;22.534;2022-09-01T10:07:53;27.20;49.60
23122;DHT22;11730;51.248;22.534;2022-09-01T10:10:38;26.20;50.00
23122;DHT22;11730;51.248;22.534;2022-09-01T10:13:11;26.40;49.50
23122;DHT22;11730;51.248;22.534;2022-09-01T10:15:40;26.60;49.50
23122;DHT22;11730;51.248;22.534;2022-09-01T10:18:15;26.80;50.00
23122;DHT22;11730;51.248;22.534;2022-09-01T10:21:25;27.60;47.90
23122;DHT22;11730;51.248;22.534;2022-09-01T10:23:52;29.60;46.00
23122;DHT22;11730;51.248;22.534;2022-09-01T10:26:30;28.50;46.00
23122;DHT22;11730;51.248;22.534;2022-09-01T10:29:26;28.20;47.30
23122;DHT22;11730;51.248;22.534;2022-09-01T10:32:03;29.00;47.10
23122;DHT22;11730;51.248;22.534;2022-09-01T10:34:54;28.50;47.30
23122;DHT22;11730;51.248;22.534;2022-09-01T10:43:00;27.70;47.30
23122;DHT22;11730;51.248;22.534;2022-09-01T10:45:46;28.40;46.90
23122;DHT22;11730;51.248;22.534;2022-09-01T10:53:51;27.90;46.50
23122;DHT22;11730;51.248;22.534;2022-09-01T10:56:42;28.40;45.40
23122;DHT22;11730;51.248;22.534;2022-09-01T11:07:32;26.10;45.60
23122;DHT22;11730;51.248;22.534;2022-09-01T11:10:28;27.90;48.50
23122;DHT22;11730;51.248;22.534;2022-09-01T11:15:42;29.30;45.00
23122;DHT22;11730;51.248;22.534;2022-09-01T11:18:36;27.50;46.40
23122;DHT22;11730;51.248;22.534;2022-09-01T11:21:14;27.30;46.70
23122;DHT22;11730;51.248;22.534;2022-09-01T11:23:42;29.10;46.10
23122;DHT22;11730;51.248;22.534;2022-09-01T11:29:02;29.30;44.00
23122;DHT22;11730;51.248;22.534;2022-09-01T11:31:40;29.30;44.50
23122;DHT22;11730;51.248;22.534;2022-09-01T11:34:17;28.30;45.00
23122;DHT22;11730;51.248;22.534;2022-09-01T11:49:29;30.40;43.40
23122;DHT22;11730;51.248;22.534;2022-09-01T11:51:58;29.70;43.50
23122;DHT22;11730;51.248;22.534;2022-09-01T11:54:27;29.40;45.00
23122;DHT22;11730;51.248;22.534;2022-09-01T11:59:34;28.80;45.60
23122;DHT22;11730;51.248;22.534;2022-09-01T12:02:02;29.20;44.30
23122;DHT22;11730;51.248;22.534;2022-09-01T12:04:33;29.10;44.50
23122;DHT22;11730;51.248;22.534;2022-09-01T12:07:05;28.20;44.50
23122;DHT22;11730;51.248;22.534;2022-09-01T12:09:42;28.50;44.80
23122;DHT22;11730;51.248;22.534;2022-09-01T12:12:33;28.70;43.50
23122;DHT22;11730;51.248;22.534;2022-09-01T12:15:09;29.90;42.90
23122;DHT22;11730;51.248;22.534;2022-09-01T12:17:39;28.80;42.80
23122;DHT22;11730;51.248;22.534;2022-09-01T12:20:22;29.40;43.30
23122;DHT22;11730;51.248;22.534;2022-09-01T12:22:55;29.20;41.80
23122;DHT22;11730;51.248;22.534;2022-09-01T12:25:28;29.50;41.80
23122;DHT22;11730;51.248;22.534;2022-09-01T12:27:55;29.60;42.50
23122;DHT22;11730;51.248;22.534;2022-09-01T12:30:24;29.70;43.30
23122;DHT22;11730;51.248;22.534;2022-09-01T12:32:52;29.70;43.50
23122;DHT22;11730;51.248;22.534;2022-09-01T12:35:39;29.40;43.10
23122;DHT22;11730;51.248;22.534;2022-09-01T12:40:49;28.50;45.40
23122;DHT22;11730;51.248;22.534;2022-09-01T12:43:44;29.90;44.10
23122;DHT22;11730;51.248;22.534;2022-09-01T12:46:39;29.90;44.30
23122;DHT22;11730;51.248;22.534;2022-09-01T12:49:33;30.00;42.80
23122;DHT22;11730;51.248;22.534;2022-09-01T12:52:25;29.70;43.40
23122;DHT22;11730;51.248;22.534;2022-09-01T13:03:25;29.80;42.30
23122;DHT22;11730;51.248;22.534;2022-09-01T13:08:17;27.30;46.60
23122;DHT22;11730;51.248;22.534;2022-09-01T13:10:50;26.90;47.60
23122;DHT22;11730;51.248;22.534;2022-09-01T13:13:18;26.60;48.00
23122;DHT22;11730;51.248;22.534;2022-09-01T13:15:48;25.90;52.60
23122;DHT22;11730;51.248;22.534;2022-09-01T13:18:18;24.10;50.40
23122;DHT22;11730;51.248;22.534;2022-09-01T13:20:46;23.70;52.60
23122;DHT22;11730;51.248;22.534;2022-09-01T13:25:41;24.30;55.90
23122;DHT22;11730;51.248;22.534;2022-09-01T13:28:10;24.30;57.70
23122;DHT22;11730;51.248;22.534;2022-09-01T13:30:37;25.10;54.50
23122;DHT22;11730;51.248;22.534;2022-09-01T13:33:05;23.20;57.30
23122;DHT22;11730;51.248;22.534;2022-09-01T13:35:49;24.00;52.60
23122;DHT22;11730;51.248;22.534;2022-09-01T13:38:17;25.20;51.10
23122;DHT22;11730;51.248;22.534;2022-09-01T13:40:45;25.70;49.60
23122;DHT22;11730;51.248;22.534;2022-09-01T13:43:14;26.80;49.40
23122;DHT22;11730;51.248;22.534;2022-09-01T13:48:11;27.50;51.00
23122;DHT22;11730;51.248;22.534;2022-09-01T13:50:47;27.40;48.30
23122;DHT22;11730;51.248;22.534;2022-09-01T13:56:05;26.60;46.60
23122;DHT22;11730;51.248;22.534;2022-09-01T13:58:32;25.20;54.10
23122;DHT22;11730;51.248;22.534;2022-09-01T14:03:27;24.70;56.00
23122;DHT22;11730;51.248;22.534;2022-09-01T14:08:25;23.90;60.30
23122;DHT22;11730;51.248;22.534;2022-09-01T14:13:21;23.70;58.40
23122;DHT22;11730;51.248;22.534;2022-09-01T14:15:48;25.00;57.80
23122;DHT22;11730;51.248;22.534;2022-09-01T14:20:45;25.80;51.20
23122;DHT22;11730;51.248;22.534;2022-09-01T14:23:14;26.40;56.40
23122;DHT22;11730;51.248;22.534;2022-09-01T14:25:46;26.20;48.70
23122;DHT22;11730;51.248;22.534;2022-09-01T14:30:47;23.60;56.70
23122;DHT22;11730;51.248;22.534;2022-09-01T14:33:15;23.70;51.30
23122;DHT22;11730;51.248;22.534;2022-09-01T14:35:46;24.30;58.90
23122;DHT22;11730;51.248;22.534;2022-09-01T14:38:13;24.90;57.20
23122;DHT22;11730;51.248;22.534;2022-09-01T14:40:41;25.30;56.50
23122;DHT22;11730;51.248;22.534;2022-09-01T14:43:10;25.80;54.90
23122;DHT22;11730;51.248;22.534;2022-09-01T14:45:39;26.10;50.60
23122;DHT22;11730;51.248;22.534;2022-09-01T14:50:42;26.80;54.40
23122;DHT22;11730;51.248;22.534;2022-09-01T14:53:10;26.30;52.40
23122;DHT22;11730;51.248;22.534;2022-09-01T14:55:37;26.90;56.70
23122;DHT22;11730;51.248;22.534;2022-09-01T14:58:04;26.60;55.30
23122;DHT22;11730;51.248;22.534;2022-09-01T15:00:32;27.80;54.70
23122;DHT22;11730;51.248;22.534;2022-09-01T15:03:01;26.90;54.70
23122;DHT22;11730;51.248;22.534;2022-09-01T15:05:28;26.80;56.00
23122;DHT22;11730;51.248;22.534;2022-09-01T15:08:05;26.90;54.60
23122;DHT22;11730;51.248;22.534;2022-09-01T15:13:00;26.40;49.70
23122;DHT22;11730;51.248;22.534;2022-09-01T15:15:28;26.40;52.00
23122;DHT22;11730;51.248;22.534;2022-09-01T15:25:37;26.00;49.90
23122;DHT22;11730;51.248;22.534;2022-09-01T15:28:04;25.50;54.40
23122;DHT22;11730;51.248;22.534;2022-09-01T15:35:27;23.50;60.40
23122;DHT22;11730;51.248;22.534;2022-09-01T15:37:55;23.50;60.70
23122;DHT22;11730;51.248;22.534;2022-09-01T15:40:23;22.90;55.70
23122;DHT22;11730;51.248;22.534;2022-09-01T15:45:24;22.20;58.90
23122;DHT22;11730;51.248;22.534;2022-09-01T15:50:22;21.80;58.80
23122;DHT22;11730;51.248;22.534;2022-09-01T15:52:59;22.10;57.80
23122;DHT22;11730;51.248;22.534;2022-09-01T15:55:30;21.40;59.20
23122;DHT22;11730;51.248;22.534;2022-09-01T16:00:26;21.00;62.20
23122;DHT22;11730;51.248;22.534;2022-09-01T16:02:54;20.80;62.10
23122;DHT22;11730;51.248;22.534;2022-09-01T16:05:23;19.90;62.10
23122;DHT22;11730;51.248;22.534;2022-09-01T16:07:51;20.40;61.70
23122;DHT22;11730;51.248;22.534;2022-09-01T16:10:19;20.90;61.50
23122;DHT22;11730;51.248;22.534;2022-09-01T16:12:46;21.20;63.00
23122;DHT22;11730;51.248;22.534;2022-09-01T16:15:20;21.50;61.90
23122;DHT22;11730;51.248;22.534;2022-09-01T16:20:42;20.90;61.70
23122;DHT22;11730;51.248;22.534;2022-09-01T16:23:13;21.00;62.40
23122;DHT22;11730;51.248;22.534;2022-09-01T16:25:43;20.00;61.80
23122;DHT22;11730;51.248;22.534;2022-09-01T16:28:28;20.70;62.30
23122;DHT22;11730;51.248;22.534;2022-09-01T16:31:01;20.40;63.30
23122;DHT22;11730;51.248;22.534;2022-09-01T16:33:31;20.60;64.40
23122;DHT22;11730;51.248;22.534;2022-09-01T16:36:17;20.60;63.80
23122;DHT22;11730;51.248;22.534;2022-09-01T16:38:58;20.40;63.60
23122;DHT22;11730;51.248;22.534;2022-09-01T16:41:36;20.70;64.80
23122;DHT22;11730;51.248;22.534;2022-09-01T16:44:40;19.90;64.90
23122;DHT22;11730;51.248;22.534;2022-09-01T16:52:25;19.50;63.90
23122;DHT22;11730;51.248;22.534;2022-09-01T16:58:18;19.70;66.30
23122;DHT22;11730;51.248;22.534;2022-09-01T17:12:13;19.30;68.00
23122;DHT22;11730;51.248;22.534;2022-09-01T17:14:51;18.90;67.80
23122;DHT22;11730;51.248;22.534;2022-09-01T17:20:04;18.30;69.80
23122;DHT22;11730;51.248;22.534;2022-09-01T17:22:33;18.80;70.50
23122;DHT22;11730;51.248;22.534;2022-09-01T17:25:06;18.40;70.90
23122;DHT22;11730;51.248;22.534;2022-09-01T17:30:11;17.80;70.80
23122;DHT22;11730;51.248;22.534;2022-09-01T17:35:44;17.10;71.70
23122;DHT22;11730;51.248;22.534;2022-09-01T17:47:03;17.60;72.50
23122;DHT22;11730;51.248;22.534;2022-09-01T17:55:33;17.40;73.40
23122;DHT22;11730;51.248;22.534;2022-09-01T18:01:09;17.30;74.50
23122;DHT22;11730;51.248;22.534;2022-09-01T18:09:07;16.90;76.40
23122;DHT22;11730;51.248;22.534;2022-09-01T18:11:48;16.90;75.80
23122;DHT22;11730;51.248;22.534;2022-09-01T18:14:20;16.70;78.40
23122;DHT22;11730;51.248;22.534;2022-09-01T18:17:01;16.60;78.70
23122;DHT22;11730;51.248;22.534;2022-09-01T18:19:36;16.70;79.10
23122;DHT22;11730;51.248;22.534;2022-09-01T18:22:10;16.60;79.80
23122;DHT22;11730;51.248;22.534;2022-09-01T18:27:12;16.60;79.60
23122;DHT22;11730;51.248;22.534;2022-09-01T18:29:39;16.40;80.00
23122;DHT22;11730;51.248;22.534;2022-09-01T18:43:21;16.30;80.80
23122;DHT22;11730;51.248;22.534;2022-09-01T18:51:14;16.20;81.10
23122;DHT22;11730;51.248;22.534;2022-09-01T18:53:51;16.20;81.30
23122;DHT22;11730;51.248;22.534;2022-09-01T19:05:28;16.20;82.70
23122;DHT22;11730;51.248;22.534;2022-09-01T19:11:02;16.10;83.60
23122;DHT22;11730;51.248;22.534;2022-09-01T19:19:43;15.90;83.70
23122;DHT22;11730;51.248;22.534;2022-09-01T19:22:13;15.80;84.10
23122;DHT22;11730;51.248;22.534;2022-09-01T19:25:19;15.80;83.60
23122;DHT22;11730;51.248;22.534;2022-09-01T19:27:59;15.90;83.60
23122;DHT22;11730;51.248;22.534;2022-09-01T19:30:28;15.90;83.50
23122;DHT22;11730;51.248;22.534;2022-09-01T19:33:03;15.90;83.30
23122;DHT22;11730;51.248;22.534;2022-09-01T19:35:32;16.00;83.20
23122;DHT22;11730;51.248;22.534;2022-09-01T19:38:05;16.00;84.10
23122;DHT22;11730;51.248;22.534;2022-09-01T19:40:35;16.00;84.10
23122;DHT22;11730;51.248;22.534;2022-09-01T19:43:10;16.00;83.80
23122;DHT22;11730;51.248;22.534;2022-09-01T19:51:33;15.90;85.80
23122;DHT22;11730;51.248;22.534;2022-09-01T19:54:19;15.70;85.80
23122;DHT22;11730;51.248;22.534;2022-09-01T19:57:00;15.80;86.50
23122;DHT22;11730;51.248;22.534;2022-09-01T20:02:09;15.50;87.20
23122;DHT22;11730;51.248;22.534;2022-09-01T20:12:41;15.50;87.60
23122;DHT22;11730;51.248;22.534;2022-09-01T20:15:29;15.40;89.10
23122;DHT22;11730;51.248;22.534;2022-09-01T20:18:04;15.50;88.20
23122;DHT22;11730;51.248;22.534;2022-09-01T20:20:45;15.30;89.00
23122;DHT22;11730;51.248;22.534;2022-09-01T20:25:48;15.10;90.20
23122;DHT22;11730;51.248;22.534;2022-09-01T20:37:07;14.80;91.70
23122;DHT22;11730;51.248;22.534;2022-09-01T20:45:27;14.80;91.90
23122;DHT22;11730;51.248;22.534;2022-09-01T20:48:00;15.10;91.90
23122;DHT22;11730;51.248;22.534;2022-09-01T20:53:20;14.90;91.90
23122;DHT22;11730;51.248;22.534;2022-09-01T20:56:17;14.90;92.30